createdAt,value
2018-06-28T00:00:43.198Z,15.40
2018-06-28T00:03:11.757Z,15.40
2018-06-28T00:05:40.230Z,15.40
2018-06-28T00:08:08.793Z,15.40
2018-06-28T00:10:37.313Z,15.30
2018-06-28T00:13:06.035Z,15.30
2018-06-28T00:15:34.561Z,15.10
2018-06-28T00:18:03.050Z,15.00
2018-06-28T00:20:31.577Z,14.90
2018-06-28T00:23:00.067Z,14.80
2018-06-28T00:25:28.566Z,14.80
2018-06-28T00:27:57.065Z,14.70
2018-06-28T00:30:25.576Z,14.70
2018-06-28T00:32:54.456Z,14.60
2018-06-28T00:35:23.034Z,14.40
2018-06-28T00:37:51.560Z,14.40
2018-06-28T00:40:20.073Z,14.30
2018-06-28T00:42:48.561Z,14.20
2018-06-28T00:45:17.135Z,14.20
2018-06-28T00:47:45.626Z,14.20
2018-06-28T00:50:14.161Z,14.20
2018-06-28T00:52:42.697Z,14.10
2018-06-28T00:55:11.246Z,14.10
2018-06-28T00:57:39.825Z,14.00
2018-06-28T01:00:08.418Z,14.00
2018-06-28T01:02:36.917Z,14.00
2018-06-28T01:05:05.721Z,14.00
2018-06-28T01:07:34.265Z,14.00
2018-06-28T01:10:02.815Z,14.00
2018-06-28T01:12:31.342Z,14.00
2018-06-28T01:17:50.356Z,14.00
2018-06-28T01:20:18.905Z,13.90
2018-06-28T01:22:47.445Z,13.90
2018-06-28T01:25:15.898Z,13.80
2018-06-28T01:27:44.482Z,13.80
2018-06-28T01:30:12.981Z,13.80
2018-06-28T01:32:41.444Z,13.70
2018-06-28T01:35:09.961Z,13.70
2018-06-28T01:37:38.522Z,13.70
2018-06-28T01:40:07.032Z,13.60
2018-06-28T01:42:48.498Z,13.60
2018-06-28T01:45:16.977Z,13.60
2018-06-28T01:47:45.477Z,13.50
2018-06-28T01:50:14.209Z,13.40
2018-06-28T01:52:42.817Z,13.40
2018-06-28T01:55:11.327Z,13.30
2018-06-28T01:57:39.803Z,13.30
2018-06-28T02:00:08.398Z,13.20
2018-06-28T02:02:36.945Z,13.20
2018-06-28T02:05:05.532Z,13.10
2018-06-28T02:07:34.000Z,13.10
2018-06-28T02:10:02.589Z,13.10
2018-06-28T02:12:31.069Z,13.10
2018-06-28T02:14:59.609Z,13.10
2018-06-28T02:17:28.091Z,13.00
2018-06-28T02:19:56.587Z,13.00
2018-06-28T02:24:53.253Z,13.00
2018-06-28T02:27:21.707Z,13.00
2018-06-28T02:29:50.193Z,13.00
2018-06-28T02:32:18.669Z,13.00
2018-06-28T02:34:47.179Z,12.90
2018-06-28T02:37:15.639Z,12.90
2018-06-28T02:39:44.147Z,12.90
2018-06-28T02:42:12.642Z,12.90
2018-06-28T02:44:41.173Z,12.80
2018-06-28T02:47:09.653Z,12.80
2018-06-28T02:49:38.132Z,12.70
2018-06-28T02:52:06.685Z,12.60
2018-06-28T02:54:35.189Z,12.60
2018-06-28T02:57:03.684Z,12.50
2018-06-28T02:59:32.145Z,12.50
2018-06-28T03:02:00.705Z,12.40
2018-06-28T03:04:29.193Z,12.40
2018-06-28T03:06:57.705Z,12.40
2018-06-28T03:09:26.190Z,12.40
2018-06-28T03:11:54.697Z,12.30
2018-06-28T03:14:23.181Z,12.30
2018-06-28T03:16:51.737Z,12.20
2018-06-28T03:19:20.267Z,12.20
2018-06-28T03:21:48.829Z,12.30
2018-06-28T03:24:17.361Z,12.20
2018-06-28T03:26:45.889Z,12.20
2018-06-28T03:29:14.513Z,12.30
2018-06-28T03:31:43.021Z,12.20
2018-06-28T03:34:11.477Z,12.20
2018-06-28T03:36:40.249Z,12.20
2018-06-28T03:39:11.766Z,12.20
2018-06-28T03:41:40.901Z,12.20
2018-06-28T03:44:10.702Z,12.20
2018-06-28T03:46:39.225Z,12.20
2018-06-28T03:49:08.439Z,12.20
2018-06-28T03:51:37.203Z,12.30
2018-06-28T03:54:06.140Z,12.40
2018-06-28T03:56:34.661Z,12.40
2018-06-28T03:59:03.426Z,12.50
2018-06-28T04:01:31.941Z,12.50
2018-06-28T04:04:00.458Z,12.50
2018-06-28T04:06:29.023Z,12.50
2018-06-28T04:08:57.503Z,12.60
2018-06-28T04:11:26.001Z,12.60
2018-06-28T04:13:54.513Z,12.70
2018-06-28T04:16:22.977Z,12.80
2018-06-28T04:18:51.502Z,12.80
2018-06-28T04:21:20.026Z,12.90
2018-06-28T04:23:48.586Z,13.00
2018-06-28T04:26:17.131Z,13.00
2018-06-28T04:28:45.626Z,13.20
2018-06-28T04:31:14.137Z,13.30
2018-06-28T04:33:42.637Z,13.40
2018-06-28T04:36:11.153Z,13.60
2018-06-28T04:38:39.674Z,13.60
2018-06-28T04:41:08.205Z,13.70
2018-06-28T04:43:36.673Z,13.90
2018-06-28T04:46:05.223Z,14.00
2018-06-28T04:48:33.714Z,14.10
2018-06-28T04:51:02.209Z,14.30
2018-06-28T04:53:30.684Z,14.40
2018-06-28T04:55:59.334Z,14.50
2018-06-28T04:58:27.858Z,14.70
2018-06-28T05:00:56.429Z,14.80
2018-06-28T05:03:24.896Z,14.90
2018-06-28T05:05:53.448Z,15.00
2018-06-28T05:08:21.955Z,15.20
2018-06-28T05:10:50.476Z,15.30
2018-06-28T05:13:19.098Z,15.40
2018-06-28T05:15:47.658Z,15.60
2018-06-28T05:18:16.221Z,15.70
2018-06-28T05:20:44.776Z,15.90
2018-06-28T05:23:13.246Z,16.10
2018-06-28T05:25:41.779Z,16.20
2018-06-28T05:28:10.280Z,16.50
2018-06-28T05:30:38.766Z,16.70
2018-06-28T05:33:07.258Z,17.60
2018-06-28T05:35:35.788Z,20.50
2018-06-28T05:38:04.327Z,23.60
2018-06-28T05:43:01.020Z,26.80
2018-06-28T05:45:29.509Z,27.30
2018-06-28T05:47:58.093Z,27.60
2018-06-28T05:50:26.580Z,27.90
2018-06-28T05:52:55.116Z,28.60
2018-06-28T05:55:23.666Z,28.90
2018-06-28T05:57:52.205Z,29.50
2018-06-28T06:00:20.817Z,30.20
2018-06-28T06:02:49.537Z,30.60
2018-06-28T06:05:18.131Z,30.10
2018-06-28T06:07:46.628Z,30.10
2018-06-28T06:10:15.133Z,30.40
2018-06-28T06:12:43.621Z,30.70
2018-06-28T06:15:12.157Z,30.90
2018-06-28T06:17:40.693Z,31.20
2018-06-28T06:20:09.525Z,31.40
2018-06-28T06:22:38.062Z,32.00
2018-06-28T06:25:06.569Z,32.70
2018-06-28T06:27:35.085Z,32.50
2018-06-28T06:30:03.734Z,32.50
2018-06-28T06:35:00.418Z,32.30
2018-06-28T06:37:28.945Z,32.40
2018-06-28T06:39:57.449Z,33.00
2018-06-28T06:42:25.976Z,33.20
2018-06-28T06:44:54.453Z,34.00
2018-06-28T06:47:22.938Z,33.60
2018-06-28T06:49:52.150Z,33.80
2018-06-28T06:52:20.896Z,34.40
2018-06-28T06:54:49.517Z,34.40
2018-06-28T06:57:17.992Z,34.90
2018-06-28T06:59:46.505Z,35.00
2018-06-28T07:02:14.959Z,34.60
2018-06-28T07:04:43.470Z,34.60
2018-06-28T07:07:11.942Z,34.00
2018-06-28T07:09:40.473Z,33.80
2018-06-28T07:12:08.922Z,34.10
2018-06-28T07:14:37.461Z,35.00
2018-06-28T07:17:05.965Z,35.60
2018-06-28T07:19:34.502Z,35.80
2018-06-28T07:22:03.013Z,36.00
2018-06-28T07:24:31.861Z,36.10
2018-06-28T07:27:00.339Z,36.80
2018-06-28T07:29:28.813Z,37.10
2018-06-28T07:31:57.309Z,36.50
2018-06-28T07:34:25.789Z,35.70
2018-06-28T07:36:54.563Z,36.00
2018-06-28T07:39:23.069Z,35.50
2018-06-28T07:41:51.585Z,35.50
2018-06-28T07:44:20.490Z,35.60
2018-06-28T07:46:49.063Z,35.80
2018-06-28T07:49:17.457Z,35.50
2018-06-28T07:51:46.006Z,35.00
2018-06-28T07:54:14.462Z,35.10
2018-06-28T07:56:43.898Z,35.10
2018-06-28T07:59:12.398Z,34.90
2018-06-28T08:01:40.904Z,35.80
2018-06-28T08:04:09.411Z,36.30
2018-06-28T08:06:37.921Z,36.40
2018-06-28T08:09:07.334Z,36.40
2018-06-28T08:11:35.897Z,36.50
2018-06-28T08:14:04.393Z,37.50
2018-06-28T08:16:32.896Z,37.60
2018-06-28T08:19:01.403Z,37.20
2018-06-28T08:21:29.931Z,37.20
2018-06-28T08:23:58.416Z,38.30
2018-06-28T08:26:26.881Z,38.00
2018-06-28T08:28:55.446Z,38.10
2018-06-28T08:31:23.945Z,38.50
2018-06-28T08:33:52.429Z,38.60
2018-06-28T08:36:20.917Z,38.10
2018-06-28T08:38:49.462Z,37.80
2018-06-28T08:41:17.933Z,37.50
2018-06-28T08:43:46.457Z,37.50
2018-06-28T08:46:14.953Z,37.00
2018-06-28T08:48:43.508Z,35.80
2018-06-28T08:51:11.987Z,36.20
2018-06-28T08:53:40.504Z,35.80
2018-06-28T08:56:09.009Z,35.50
2018-06-28T08:58:37.530Z,34.50
2018-06-28T09:01:06.086Z,35.30
2018-06-28T09:03:34.609Z,36.80
2018-06-28T09:06:03.110Z,36.50
2018-06-28T09:08:31.861Z,36.50
2018-06-28T09:13:28.558Z,36.80
2018-06-28T09:15:57.038Z,37.50
2018-06-28T09:18:25.502Z,37.50
2018-06-28T09:20:54.013Z,38.00
2018-06-28T09:23:22.549Z,38.70
2018-06-28T09:25:51.096Z,38.80
2018-06-28T09:28:19.613Z,38.80
2018-06-28T09:30:48.122Z,38.70
2018-06-28T09:33:16.598Z,38.40
2018-06-28T09:35:45.150Z,38.60
2018-06-28T09:38:13.549Z,39.00
2018-06-28T09:40:42.099Z,38.80
2018-06-28T09:43:10.598Z,38.80
2018-06-28T09:45:39.108Z,39.10
2018-06-28T09:48:07.593Z,39.10
2018-06-28T09:50:36.179Z,37.60
2018-06-28T09:55:32.874Z,35.90
2018-06-28T09:58:01.389Z,35.30
2018-06-28T10:00:35.279Z,35.50
2018-06-28T10:03:03.698Z,35.80
2018-06-28T10:05:32.200Z,35.10
2018-06-28T10:08:00.725Z,35.10
2018-06-28T10:10:29.200Z,35.60
2018-06-28T10:12:58.197Z,35.60
2018-06-28T10:15:26.653Z,35.60
2018-06-28T10:17:55.180Z,35.60
2018-06-28T10:20:23.670Z,35.50
2018-06-28T10:22:52.198Z,35.70
2018-06-28T10:25:20.767Z,36.00
2018-06-28T10:27:49.257Z,36.70
2018-06-28T10:30:17.865Z,36.50
2018-06-28T10:32:46.499Z,35.70
2018-06-28T10:35:14.938Z,35.00
2018-06-28T10:37:43.495Z,34.10
2018-06-28T10:40:11.976Z,33.40
2018-06-28T10:42:40.465Z,33.30
2018-06-28T10:45:09.001Z,33.00
2018-06-28T10:47:37.553Z,33.00
2018-06-28T10:50:06.018Z,33.20
2018-06-28T10:52:34.505Z,32.70
2018-06-28T10:55:03.025Z,32.90
2018-06-28T10:57:31.532Z,33.00
2018-06-28T10:59:59.997Z,32.60
2018-06-28T11:02:28.594Z,32.10
2018-06-28T11:04:57.062Z,31.40
2018-06-28T11:07:25.563Z,30.80
2018-06-28T11:09:54.061Z,30.30
2018-06-28T11:14:50.701Z,30.10
2018-06-28T11:17:19.190Z,29.70
2018-06-28T11:19:47.732Z,29.70
2018-06-28T11:24:44.373Z,29.70
2018-06-28T11:27:12.897Z,29.90
2018-06-28T11:29:41.426Z,30.30
2018-06-28T11:32:09.898Z,30.00
2018-06-28T11:37:06.545Z,29.70
2018-06-28T11:39:35.048Z,29.80
2018-06-28T11:42:03.565Z,29.90
2018-06-28T11:44:32.053Z,30.00
2018-06-28T11:47:00.570Z,30.00
2018-06-28T11:49:29.140Z,30.40
2018-06-28T11:51:57.644Z,30.40
2018-06-28T11:54:26.204Z,30.10
2018-06-28T11:56:54.753Z,29.80
2018-06-28T11:59:23.321Z,29.60
2018-06-28T12:01:52.110Z,29.60
2018-06-28T12:04:20.634Z,29.70
2018-06-28T12:09:17.330Z,29.80
2018-06-28T12:11:45.861Z,29.70
2018-06-28T12:14:14.324Z,29.90
2018-06-28T12:16:42.850Z,30.10
2018-06-28T12:19:11.373Z,30.10
2018-06-28T12:21:40.013Z,30.40
2018-06-28T12:24:08.521Z,30.40
2018-06-28T12:26:37.041Z,30.00
2018-06-28T12:29:05.613Z,29.40
2018-06-28T12:31:34.210Z,29.40
2018-06-28T12:34:02.712Z,29.90
2018-06-28T12:36:31.417Z,30.30
2018-06-28T12:38:59.917Z,30.20
2018-06-28T12:41:28.442Z,30.30
2018-06-28T12:43:56.948Z,30.30
2018-06-28T12:47:51.321Z,30.20
2018-06-28T12:50:19.814Z,30.00
2018-06-28T12:52:53.810Z,30.20
2018-06-28T12:55:22.894Z,30.50
2018-06-28T12:57:53.136Z,30.50
2018-06-28T13:00:21.665Z,30.40
2018-06-28T13:02:50.160Z,30.40
2018-06-28T13:05:18.702Z,30.40
2018-06-28T13:07:47.220Z,29.60
2018-06-28T13:10:17.329Z,29.20
2018-06-28T13:12:45.921Z,29.10
2018-06-28T13:15:15.128Z,29.30
2018-06-28T13:17:43.675Z,29.60
2018-06-28T13:20:12.230Z,30.00
2018-06-28T13:22:41.157Z,30.10
2018-06-28T13:25:10.968Z,30.50
2018-06-28T13:27:39.485Z,30.60
2018-06-28T13:30:09.182Z,30.40
2018-06-28T13:32:37.692Z,30.00
2018-06-28T13:35:06.278Z,29.50
2018-06-28T13:37:34.863Z,29.50
2018-06-28T13:40:04.540Z,29.70
2018-06-28T13:42:33.001Z,29.90
2018-06-28T13:45:01.529Z,30.00
2018-06-28T13:47:30.023Z,30.00
2018-06-28T13:49:58.558Z,30.20
2018-06-28T13:52:27.065Z,30.40
2018-06-28T13:54:55.564Z,30.70
2018-06-28T13:57:24.082Z,30.90
2018-06-28T13:59:52.644Z,31.10
2018-06-28T14:02:21.112Z,31.20
2018-06-28T14:04:49.667Z,30.60
2018-06-28T14:07:18.154Z,30.00
2018-06-28T14:12:14.816Z,29.30
2018-06-28T14:14:43.589Z,29.00
2018-06-28T14:17:12.150Z,28.80
2018-06-28T14:19:40.673Z,29.00
2018-06-28T14:22:09.188Z,29.40
2018-06-28T14:24:37.654Z,29.80
2018-06-28T14:27:06.362Z,29.80
2018-06-28T14:29:34.833Z,29.40
2018-06-28T14:32:03.344Z,29.00
2018-06-28T14:34:31.898Z,28.60
2018-06-28T14:37:00.429Z,28.70
2018-06-28T14:39:28.984Z,29.00
2018-06-28T14:41:58.101Z,29.10
2018-06-28T14:44:26.604Z,28.80
2018-06-28T14:46:55.124Z,28.80
2018-06-28T14:49:26.489Z,28.90
2018-06-28T14:51:55.013Z,28.90
2018-06-28T14:54:23.553Z,29.00
2018-06-28T14:56:52.223Z,29.10
2018-06-28T14:59:20.693Z,29.30
2018-06-28T15:01:49.246Z,29.40
2018-06-28T15:04:17.793Z,29.40
2018-06-28T15:06:46.334Z,29.50
2018-06-28T15:11:43.716Z,29.40
2018-06-28T15:14:12.221Z,29.50
2018-06-28T15:16:40.721Z,29.30
2018-06-28T15:19:09.393Z,29.40
2018-06-28T15:21:38.241Z,29.60
2018-06-28T15:24:06.736Z,29.60
2018-06-28T15:26:35.268Z,29.70
2018-06-28T15:29:03.922Z,29.80
2018-06-28T15:31:33.033Z,30.10
2018-06-28T15:34:01.633Z,30.20
2018-06-28T15:36:30.150Z,30.10
2018-06-28T15:38:58.758Z,30.30
2018-06-28T15:41:27.248Z,30.10
2018-06-28T15:43:55.762Z,30.10
2018-06-28T15:46:24.362Z,30.10
2018-06-28T15:48:52.861Z,30.10
2018-06-28T15:51:21.351Z,30.20
2018-06-28T15:53:50.441Z,30.20
2018-06-28T15:56:19.004Z,30.10
2018-06-28T15:58:47.521Z,30.20
2018-06-28T16:01:16.078Z,30.20
2018-06-28T16:03:44.622Z,30.30
2018-06-28T16:06:13.146Z,30.60
2018-06-28T16:08:41.731Z,30.50
2018-06-28T16:11:10.372Z,30.80
2018-06-28T16:13:38.874Z,30.90
2018-06-28T16:16:07.567Z,30.80
2018-06-28T16:18:36.306Z,30.90
2018-06-28T16:21:04.989Z,30.90
2018-06-28T16:23:33.517Z,30.90
2018-06-28T16:26:02.194Z,31.10
2018-06-28T16:28:30.720Z,31.10
2018-06-28T16:30:59.262Z,30.90
2018-06-28T16:33:27.794Z,30.90
2018-06-28T16:35:56.314Z,31.10
2018-06-28T16:38:24.813Z,31.10
2018-06-28T16:40:53.389Z,31.10
2018-06-28T16:43:21.970Z,30.80
2018-06-28T16:45:50.648Z,30.50
2018-06-28T16:48:19.177Z,30.40
2018-06-28T16:50:47.681Z,30.30
2018-06-28T16:53:16.237Z,30.30
2018-06-28T16:55:44.775Z,30.20
2018-06-28T16:58:13.297Z,30.20
2018-06-28T17:00:42.334Z,30.00
2018-06-28T17:03:15.301Z,30.00
2018-06-28T17:05:44.076Z,30.00
2018-06-28T17:08:12.611Z,29.90
2018-06-28T17:10:41.161Z,29.80
2018-06-28T17:13:09.705Z,29.50
2018-06-28T17:15:38.494Z,29.40
2018-06-28T17:18:06.993Z,29.30
2018-06-28T17:20:35.538Z,28.90
2018-06-28T17:23:04.115Z,28.80
2018-06-28T17:25:32.608Z,28.50
2018-06-28T17:28:01.193Z,28.10
2018-06-28T17:30:29.766Z,27.90
2018-06-28T17:32:58.291Z,27.70
2018-06-28T17:35:27.896Z,27.60
2018-06-28T17:37:56.429Z,27.50
2018-06-28T17:40:24.935Z,27.40
2018-06-28T17:42:53.532Z,27.40
2018-06-28T17:45:22.097Z,27.30
2018-06-28T17:47:50.878Z,27.20
2018-06-28T17:50:21.053Z,27.20
2018-06-28T17:52:49.951Z,27.10
2018-06-28T17:55:18.456Z,27.00
2018-06-28T17:57:47.006Z,26.90
2018-06-28T18:00:15.800Z,26.80
2018-06-28T18:02:44.281Z,26.90
2018-06-28T18:05:12.801Z,26.90
2018-06-28T18:07:41.250Z,26.80
2018-06-28T18:10:10.073Z,26.80
2018-06-28T18:12:39.099Z,26.70
2018-06-28T18:15:07.662Z,26.60
2018-06-28T18:17:36.163Z,26.60
2018-06-28T18:20:04.802Z,26.50
2018-06-28T18:25:01.425Z,26.40
2018-06-28T18:27:29.911Z,26.40
2018-06-28T18:29:58.433Z,26.30
2018-06-28T18:32:26.924Z,26.30
2018-06-28T18:34:55.445Z,26.20
2018-06-28T18:37:24.001Z,26.00
2018-06-28T18:39:52.480Z,25.90
2018-06-28T18:42:21.095Z,25.90
2018-06-28T18:44:49.584Z,25.80
2018-06-28T18:47:18.139Z,25.70
2018-06-28T18:49:46.642Z,25.60
2018-06-28T18:52:15.221Z,25.50
2018-06-28T18:54:43.745Z,25.50
2018-06-28T18:57:12.341Z,25.30
2018-06-28T18:59:40.808Z,25.30
2018-06-28T19:04:37.613Z,25.20
2018-06-28T19:07:06.501Z,25.10
2018-06-28T19:09:40.265Z,25.10
2018-06-28T19:12:09.457Z,24.90
2018-06-28T19:15:47.038Z,24.80
2018-06-28T19:18:15.578Z,24.80
2018-06-28T19:20:48.273Z,24.70
2018-06-28T19:23:21.999Z,24.60
2018-06-28T19:25:50.582Z,24.40
2018-06-28T19:28:19.145Z,24.40
2018-06-28T19:30:52.949Z,24.20
2018-06-28T19:33:21.520Z,24.20
2018-06-28T19:35:50.087Z,24.00
2018-06-28T19:38:18.650Z,23.90
2018-06-28T19:40:52.548Z,23.70
2018-06-28T19:43:21.184Z,23.60
2018-06-28T19:45:49.737Z,23.40
2018-06-28T19:48:18.314Z,23.30
2018-06-28T19:50:51.949Z,23.20
2018-06-28T19:53:20.569Z,23.00
2018-06-28T19:55:49.147Z,22.90
2018-06-28T19:58:17.695Z,22.80
2018-06-28T20:00:51.390Z,22.70
2018-06-28T20:03:25.147Z,22.60
2018-06-28T20:05:53.671Z,22.50
2018-06-28T20:08:22.329Z,22.40
2018-06-28T20:10:50.868Z,22.30
2018-06-28T20:13:24.789Z,22.20
2018-06-28T20:15:58.641Z,22.20
2018-06-28T20:18:32.589Z,22.00
2018-06-28T20:21:03.378Z,22.00
2018-06-28T20:23:31.997Z,21.90
2018-06-28T20:26:04.721Z,21.80
2018-06-28T20:28:38.602Z,21.70
2018-06-28T20:32:13.932Z,21.70
2018-06-28T20:34:50.076Z,21.60
2018-06-28T20:37:18.585Z,21.50
2018-06-28T20:39:47.909Z,21.40
2018-06-28T20:42:16.436Z,21.30
2018-06-28T20:44:44.953Z,21.20
2018-06-28T20:47:13.481Z,21.10
2018-06-28T20:49:42.068Z,21.00
2018-06-28T20:52:10.554Z,20.90
2018-06-28T20:54:39.202Z,20.90
2018-06-28T20:57:08.036Z,20.80
2018-06-28T20:59:36.629Z,20.70
2018-06-28T21:02:05.236Z,20.60
2018-06-28T21:04:33.881Z,20.60
2018-06-28T21:07:02.875Z,20.50
2018-06-28T21:09:31.392Z,20.40
2018-06-28T21:12:00.016Z,20.40
2018-06-28T21:14:28.505Z,20.30
2018-06-28T21:16:57.046Z,20.20
2018-06-28T21:19:25.651Z,20.10
2018-06-28T21:21:54.324Z,20.00
2018-06-28T21:24:22.861Z,19.90
2018-06-28T21:26:51.452Z,19.80
2018-06-28T21:29:19.944Z,19.70
2018-06-28T21:31:48.439Z,19.70
2018-06-28T21:34:16.909Z,19.60
2018-06-28T21:36:45.477Z,19.50
2018-06-28T21:39:13.912Z,19.50
2018-06-28T21:41:42.454Z,19.40
2018-06-28T21:44:10.938Z,19.40
2018-06-28T21:46:39.489Z,19.40
2018-06-28T21:49:08.001Z,19.30
2018-06-28T21:51:36.545Z,19.40
2018-06-28T21:54:05.069Z,19.40
2018-06-28T21:56:33.577Z,19.30
2018-06-28T21:59:02.150Z,19.30
2018-06-28T22:01:30.666Z,19.30
2018-06-28T22:03:59.217Z,19.20
2018-06-28T22:06:27.711Z,19.20
2018-06-28T22:08:56.272Z,19.20
2018-06-28T22:11:24.794Z,19.20
2018-06-28T22:13:53.360Z,19.20
2018-06-28T22:16:21.832Z,19.20
2018-06-28T22:18:50.345Z,19.20
2018-06-28T22:21:18.844Z,19.10
2018-06-28T22:23:47.365Z,19.10
2018-06-28T22:26:15.880Z,19.10
2018-06-28T22:28:44.397Z,19.10
2018-06-28T22:31:12.872Z,19.00
2018-06-28T22:33:41.388Z,19.00
2018-06-28T22:36:09.888Z,18.90
2018-06-28T22:38:38.366Z,18.90
2018-06-28T22:41:07.177Z,18.90
2018-06-28T22:43:35.709Z,18.80
2018-06-28T22:46:04.237Z,18.80
2018-06-28T22:48:32.719Z,18.70
2018-06-28T22:51:01.261Z,18.70
2018-06-28T22:53:29.757Z,18.70
2018-06-28T22:55:58.265Z,18.70
2018-06-28T22:58:26.808Z,18.70
2018-06-28T23:00:55.363Z,18.70
2018-06-28T23:05:52.026Z,18.60
2018-06-28T23:08:20.525Z,18.50
2018-06-28T23:10:49.086Z,18.40
2018-06-28T23:13:17.571Z,18.30
2018-06-28T23:15:46.041Z,18.20
2018-06-28T23:18:14.545Z,18.10
2018-06-28T23:20:43.125Z,18.10
2018-06-28T23:23:11.687Z,18.10
2018-06-28T23:25:40.198Z,18.00
2018-06-28T23:28:08.767Z,18.00
2018-06-28T23:30:37.268Z,17.90
2018-06-28T23:33:05.781Z,17.90
2018-06-28T23:35:34.281Z,17.80
2018-06-28T23:38:02.781Z,17.80
2018-06-28T23:40:31.278Z,17.80
2018-06-28T23:45:28.113Z,17.70
2018-06-28T23:47:56.672Z,17.70
2018-06-28T23:50:25.152Z,17.80
2018-06-28T23:52:53.729Z,17.80
2018-06-28T23:55:22.248Z,17.80
2018-06-28T23:57:50.777Z,17.80
